createdAt,value
2018-11-06T00:01:12.150Z,10.35
2018-11-06T00:03:45.790Z,10.48
2018-11-06T00:06:14.297Z,10.93
2018-11-06T00:08:42.480Z,10.30
2018-11-06T00:11:11.660Z,10.43
2018-11-06T00:13:39.902Z,10.15
2018-11-06T00:16:09.161Z,10.40
2018-11-06T00:18:37.354Z,11.43
2018-11-06T00:21:05.967Z,10.38
2018-11-06T00:23:34.179Z,10.98
2018-11-06T00:26:02.708Z,10.70
2018-11-06T00:28:31.093Z,10.95
2018-11-06T00:30:59.293Z,10.15
2018-11-06T00:33:27.461Z,9.58
2018-11-06T00:35:55.678Z,9.03
2018-11-06T00:38:23.876Z,9.08
2018-11-06T00:40:52.090Z,9.90
2018-11-06T00:43:20.295Z,8.90
2018-11-06T00:45:48.509Z,9.45
2018-11-06T00:48:16.699Z,8.88
2018-11-06T00:50:44.934Z,8.95
2018-11-06T00:53:13.127Z,9.35
2018-11-06T00:55:41.330Z,8.03
2018-11-06T00:58:09.518Z,9.55
2018-11-06T01:00:37.722Z,9.68
2018-11-06T01:03:05.933Z,9.28
2018-11-06T01:05:34.363Z,8.55
2018-11-06T01:08:02.546Z,8.60
2018-11-06T01:10:30.764Z,8.28
2018-11-06T01:12:59.005Z,8.28
2018-11-06T01:15:27.228Z,9.48
2018-11-06T01:17:55.427Z,9.83
2018-11-06T01:20:23.855Z,9.25
2018-11-06T01:22:52.286Z,9.25
2018-11-06T01:25:20.510Z,10.08
2018-11-06T01:27:48.721Z,9.23
2018-11-06T01:30:18.701Z,9.23
2018-11-06T01:32:47.378Z,10.18
2018-11-06T01:35:16.691Z,9.80
2018-11-06T01:37:45.698Z,9.50
2018-11-06T01:40:15.191Z,9.75
2018-11-06T01:42:43.982Z,10.23
2018-11-06T01:45:13.387Z,9.45
2018-11-06T01:47:41.882Z,9.18
2018-11-06T01:50:12.294Z,9.03
2018-11-06T01:52:40.926Z,8.93
2018-11-06T01:55:10.678Z,9.98
2018-11-06T01:57:38.914Z,9.83
2018-11-06T02:00:10.006Z,9.68
2018-11-06T02:02:38.222Z,10.03
2018-11-06T02:05:07.511Z,9.15
2018-11-06T02:07:35.816Z,9.20
2018-11-06T02:10:04.068Z,9.65
2018-11-06T02:12:32.302Z,9.88
2018-11-06T02:15:00.479Z,9.60
2018-11-06T02:17:28.662Z,9.45
2018-11-06T02:19:56.861Z,9.80
2018-11-06T02:22:25.077Z,9.80
2018-11-06T02:24:53.291Z,9.48
2018-11-06T02:27:21.535Z,10.20
2018-11-06T02:29:49.790Z,10.65
2018-11-06T02:32:18.651Z,9.50
2018-11-06T02:34:46.873Z,9.05
2018-11-06T02:37:15.085Z,9.05
2018-11-06T02:39:43.510Z,8.45
2018-11-06T02:42:11.710Z,8.90
2018-11-06T02:44:39.914Z,9.33
2018-11-06T02:47:08.411Z,9.13
2018-11-06T02:49:37.659Z,9.35
2018-11-06T02:52:06.298Z,8.50
2018-11-06T02:54:34.539Z,7.42
2018-11-06T02:57:02.807Z,8.28
2018-11-06T02:59:31.009Z,8.50
2018-11-06T03:01:59.199Z,8.23
2018-11-06T03:04:27.394Z,8.35
2018-11-06T03:06:55.600Z,8.75
2018-11-06T03:09:23.811Z,7.47
2018-11-06T03:11:52.022Z,9.13
2018-11-06T03:14:20.417Z,8.33
2018-11-06T03:16:48.652Z,9.75
2018-11-06T03:19:20.054Z,8.08
2018-11-06T03:21:48.306Z,8.45
2018-11-06T03:24:16.496Z,9.15
2018-11-06T03:26:44.721Z,8.18
2018-11-06T03:29:12.907Z,8.10
2018-11-06T03:31:41.135Z,8.45
2018-11-06T03:34:09.542Z,8.90
2018-11-06T03:36:37.751Z,8.75
2018-11-06T03:39:07.690Z,8.15
2018-11-06T03:41:35.923Z,9.63
2018-11-06T03:44:04.325Z,10.05
2018-11-06T03:46:32.537Z,9.03
2018-11-06T03:49:00.904Z,8.28
2018-11-06T03:51:29.209Z,10.25
2018-11-06T03:53:57.442Z,10.53
2018-11-06T03:56:25.653Z,9.00
2018-11-06T03:58:53.851Z,9.60
2018-11-06T04:01:22.067Z,10.28
2018-11-06T04:03:50.259Z,9.45
2018-11-06T04:06:18.532Z,10.35
2018-11-06T04:08:46.763Z,10.08
2018-11-06T04:11:14.950Z,10.63
2018-11-06T04:13:43.190Z,9.43
2018-11-06T04:16:11.406Z,10.03
2018-11-06T04:18:39.642Z,8.85
2018-11-06T04:21:07.845Z,9.68
2018-11-06T04:23:36.020Z,9.18
2018-11-06T04:26:04.240Z,10.32
2018-11-06T04:28:32.653Z,9.20
2018-11-06T04:31:00.859Z,10.05
2018-11-06T04:33:29.033Z,9.58
2018-11-06T04:35:57.230Z,9.80
2018-11-06T04:38:25.407Z,9.18
2018-11-06T04:40:53.617Z,9.48
2018-11-06T04:43:21.843Z,9.40
2018-11-06T04:45:49.997Z,9.90
2018-11-06T04:48:18.198Z,9.53
2018-11-06T04:50:46.390Z,8.60
2018-11-06T04:53:14.659Z,9.88
2018-11-06T04:55:43.082Z,9.50
2018-11-06T04:58:11.936Z,10.32
2018-11-06T05:00:40.441Z,10.03
2018-11-06T05:03:08.917Z,9.45
2018-11-06T05:05:37.670Z,11.60
2018-11-06T05:08:06.315Z,10.60
2018-11-06T05:10:34.810Z,8.95
2018-11-06T05:13:03.268Z,9.33
2018-11-06T05:15:31.626Z,9.50
2018-11-06T05:18:00.034Z,9.93
2018-11-06T05:20:28.535Z,9.53
2018-11-06T05:22:57.030Z,8.70
2018-11-06T05:25:25.435Z,9.93
2018-11-06T05:27:53.757Z,10.80
2018-11-06T05:30:22.400Z,10.25
2018-11-06T05:33:33.777Z,9.60
2018-11-06T05:36:15.686Z,10.13
2018-11-06T05:38:47.446Z,10.43
2018-11-06T05:41:16.335Z,9.68
2018-11-06T05:43:50.516Z,10.50
2018-11-06T05:46:19.600Z,11.60
2018-11-06T05:48:52.198Z,10.38
2018-11-06T05:51:21.781Z,10.48
2018-11-06T05:53:52.760Z,10.35
2018-11-06T05:56:22.112Z,11.48
2018-11-06T05:58:52.254Z,10.00
2018-11-06T06:01:20.661Z,10.08
2018-11-06T06:03:49.525Z,9.08
2018-11-06T06:06:18.443Z,9.90
2018-11-06T06:08:46.947Z,11.25
2018-11-06T06:11:16.031Z,9.60
2018-11-06T06:16:34.951Z,9.70
2018-11-06T06:19:05.966Z,10.82
2018-11-06T06:21:34.524Z,10.80
2018-11-06T06:24:02.986Z,10.50
2018-11-06T06:26:31.535Z,9.25
2018-11-06T06:31:52.335Z,8.80
2018-11-06T06:34:21.046Z,8.40
2018-11-06T06:36:49.489Z,9.88
2018-11-06T06:39:17.878Z,9.03
2018-11-06T06:41:46.381Z,9.15
2018-11-06T06:44:16.604Z,8.83
2018-11-06T06:46:45.291Z,8.55
2018-11-06T06:49:13.752Z,8.85
2018-11-06T06:51:42.190Z,10.43
2018-11-06T06:54:10.646Z,9.53
2018-11-06T06:56:38.913Z,9.98
2018-11-06T06:59:08.562Z,9.60
2018-11-06T07:01:37.028Z,11.00
2018-11-06T07:04:05.699Z,9.95
2018-11-06T07:06:34.071Z,9.60
2018-11-06T07:09:02.447Z,10.72
2018-11-06T07:11:30.791Z,9.18
2018-11-06T07:13:59.128Z,9.45
2018-11-06T07:16:27.451Z,8.58
2018-11-06T07:18:55.853Z,9.75
2018-11-06T07:21:24.322Z,8.75
2018-11-06T07:23:52.570Z,8.58
2018-11-06T07:26:20.996Z,8.65
2018-11-06T07:28:49.382Z,10.23
2018-11-06T07:31:18.014Z,8.50
2018-11-06T07:33:46.343Z,7.95
2018-11-06T07:36:14.696Z,8.45
2018-11-06T07:38:43.151Z,8.33
2018-11-06T07:41:11.435Z,8.48
2018-11-06T07:43:40.042Z,8.68
2018-11-06T07:46:08.583Z,8.58
2018-11-06T07:48:37.227Z,8.90
2018-11-06T07:51:05.507Z,8.75
2018-11-06T07:53:33.731Z,7.95
2018-11-06T07:56:01.952Z,8.15
2018-11-06T07:58:30.140Z,7.87
2018-11-06T08:00:58.479Z,7.60
2018-11-06T08:03:26.851Z,7.60
2018-11-06T08:05:55.246Z,8.28
2018-11-06T08:08:23.906Z,8.18
2018-11-06T08:10:52.320Z,8.03
2018-11-06T08:13:20.674Z,7.72
2018-11-06T08:15:49.014Z,7.58
2018-11-06T08:18:17.350Z,7.33
2018-11-06T08:20:45.851Z,7.20
2018-11-06T08:23:14.169Z,7.40
2018-11-06T08:25:44.002Z,6.70
2018-11-06T08:28:12.316Z,7.93
2018-11-06T08:30:40.816Z,6.80
2018-11-06T08:33:09.614Z,7.47
2018-11-06T08:35:37.970Z,7.42
2018-11-06T08:38:06.320Z,7.47
2018-11-06T08:40:34.992Z,7.00
2018-11-06T08:43:03.311Z,8.57
2018-11-06T08:45:32.184Z,7.53
2018-11-06T08:48:00.576Z,6.73
2018-11-06T08:50:29.319Z,8.13
2018-11-06T08:52:57.755Z,6.83
2018-11-06T08:55:26.083Z,6.67
2018-11-06T08:57:54.503Z,8.13
2018-11-06T09:00:22.836Z,7.10
2018-11-06T09:02:51.203Z,7.15
2018-11-06T09:05:19.667Z,8.03
2018-11-06T09:07:48.005Z,8.43
2018-11-06T09:10:17.244Z,7.07
2018-11-06T09:12:45.639Z,7.37
2018-11-06T09:15:15.071Z,7.13
2018-11-06T09:17:43.610Z,8.03
2018-11-06T09:20:13.157Z,7.93
2018-11-06T09:22:41.527Z,7.77
2018-11-06T09:25:12.230Z,7.90
2018-11-06T09:27:41.397Z,7.40
2018-11-06T09:30:11.873Z,6.63
2018-11-06T09:32:40.151Z,6.95
2018-11-06T09:35:09.517Z,5.73
2018-11-06T09:37:37.916Z,6.30
2018-11-06T09:40:07.922Z,6.43
2018-11-06T09:42:36.308Z,7.67
2018-11-06T09:45:04.858Z,6.13
2018-11-06T09:47:33.091Z,7.63
2018-11-06T09:50:01.429Z,6.60
2018-11-06T09:52:29.767Z,6.83
2018-11-06T09:54:58.203Z,6.40
2018-11-06T09:57:26.479Z,7.33
2018-11-06T09:59:54.794Z,6.00
2018-11-06T10:02:23.150Z,6.77
2018-11-06T10:04:51.451Z,7.73
2018-11-06T10:07:20.539Z,7.20
2018-11-06T10:09:48.623Z,7.27
2018-11-06T10:12:16.968Z,6.70
2018-11-06T10:14:45.708Z,7.13
2018-11-06T10:17:14.402Z,7.60
2018-11-06T10:19:42.771Z,6.90
2018-11-06T10:22:11.527Z,6.83
2018-11-06T10:24:39.960Z,6.73
2018-11-06T10:27:08.244Z,7.77
2018-11-06T10:29:36.766Z,7.00
2018-11-06T10:32:05.404Z,6.67
2018-11-06T10:34:33.728Z,6.87
2018-11-06T10:37:02.080Z,8.13
2018-11-06T10:39:30.423Z,6.93
2018-11-06T10:41:58.874Z,7.70
2018-11-06T10:47:17.976Z,6.60
2018-11-06T10:49:46.626Z,6.80
2018-11-06T10:52:14.931Z,7.17
2018-11-06T10:54:43.188Z,6.90
2018-11-06T10:57:11.503Z,7.20
2018-11-06T10:59:40.464Z,8.50
2018-11-06T11:02:14.306Z,6.97
2018-11-06T11:04:43.007Z,7.20
2018-11-06T11:07:11.355Z,6.53
2018-11-06T11:09:39.814Z,7.40
2018-11-06T11:12:08.130Z,6.27
2018-11-06T11:14:36.469Z,6.70
2018-11-06T11:17:05.388Z,6.63
2018-11-06T11:19:33.684Z,6.70
2018-11-06T11:22:02.664Z,7.00
2018-11-06T11:24:31.722Z,6.30
2018-11-06T11:27:00.057Z,6.37
2018-11-06T11:29:28.446Z,5.97
2018-11-06T11:32:09.466Z,6.87
2018-11-06T11:34:41.948Z,7.17
2018-11-06T11:41:24.615Z,6.73
2018-11-06T11:43:53.119Z,7.20
2018-11-06T11:46:21.469Z,5.50
2018-11-06T11:48:50.937Z,6.30
2018-11-06T11:51:20.371Z,6.47
2018-11-06T11:56:40.865Z,7.00
2018-11-06T11:59:10.757Z,6.47
2018-11-06T12:01:39.478Z,7.40
2018-11-06T12:04:08.437Z,5.77
2018-11-06T12:06:36.774Z,6.63
2018-11-06T12:09:07.907Z,6.83
2018-11-06T12:11:36.364Z,6.30
2018-11-06T12:14:04.740Z,5.87
2018-11-06T12:16:33.214Z,5.67
2018-11-06T12:19:01.595Z,6.33
2018-11-06T12:21:29.915Z,5.83
2018-11-06T12:23:58.934Z,5.20
2018-11-06T12:26:27.711Z,5.80
2018-11-06T12:28:56.164Z,5.70
2018-11-06T12:31:24.656Z,5.10
2018-11-06T12:33:53.092Z,5.50
2018-11-06T12:36:21.790Z,5.20
2018-11-06T12:38:50.393Z,4.97
2018-11-06T12:41:18.975Z,5.50
2018-11-06T12:43:50.873Z,6.63
2018-11-06T12:46:20.057Z,5.17
2018-11-06T12:48:48.616Z,5.30
2018-11-06T12:51:17.337Z,5.00
2018-11-06T12:53:46.859Z,4.83
2018-11-06T12:56:15.470Z,5.63
2018-11-06T12:58:43.756Z,5.30
2018-11-06T13:01:12.391Z,5.90
2018-11-06T13:03:40.703Z,5.93
2018-11-06T13:06:09.332Z,5.70
2018-11-06T13:08:37.720Z,5.30
2018-11-06T13:11:06.524Z,5.00
2018-11-06T13:13:35.229Z,5.50
2018-11-06T13:16:04.445Z,5.57
2018-11-06T13:18:34.587Z,5.67
2018-11-06T13:21:03.932Z,4.83
2018-11-06T13:23:32.510Z,5.27
2018-11-06T13:26:02.810Z,4.57
2018-11-06T13:28:33.561Z,4.93
2018-11-06T13:31:03.837Z,5.37
2018-11-06T13:33:32.220Z,5.07
2018-11-06T13:36:00.805Z,5.60
2018-11-06T13:38:29.620Z,4.60
2018-11-06T13:40:58.719Z,5.00
2018-11-06T13:43:27.080Z,4.97
2018-11-06T13:45:55.302Z,5.20
2018-11-06T13:48:23.615Z,5.10
2018-11-06T13:50:51.906Z,4.37
2018-11-06T13:53:20.391Z,5.70
2018-11-06T13:55:48.610Z,4.93
2018-11-06T13:58:17.164Z,4.70
2018-11-06T14:00:45.666Z,4.70
2018-11-06T14:03:13.959Z,4.93
2018-11-06T14:05:42.441Z,5.03
2018-11-06T14:08:10.654Z,5.03
2018-11-06T14:10:38.911Z,4.57
2018-11-06T14:13:07.221Z,4.90
2018-11-06T14:15:35.532Z,4.80
2018-11-06T14:18:04.203Z,5.37
2018-11-06T14:20:32.426Z,4.30
2018-11-06T14:23:01.062Z,5.03
2018-11-06T14:25:29.395Z,4.67
2018-11-06T14:27:57.776Z,6.20
2018-11-06T14:30:26.033Z,5.00
2018-11-06T14:32:54.266Z,5.10
2018-11-06T14:35:22.648Z,4.90
2018-11-06T14:37:51.150Z,4.70
2018-11-06T14:40:19.346Z,4.73
2018-11-06T14:42:47.879Z,4.83
2018-11-06T14:45:17.323Z,5.03
2018-11-06T14:47:45.554Z,4.90
2018-11-06T14:50:14.171Z,5.67
2018-11-06T14:52:42.366Z,6.30
2018-11-06T14:55:12.053Z,5.33
2018-11-06T14:57:40.543Z,5.27
2018-11-06T15:00:18.440Z,5.73
2018-11-06T15:02:47.783Z,6.00
2018-11-06T15:05:16.683Z,5.23
2018-11-06T15:07:44.988Z,5.00
2018-11-06T15:10:13.210Z,5.63
2018-11-06T15:12:41.692Z,6.20
2018-11-06T15:15:11.300Z,6.50
2018-11-06T15:17:40.183Z,6.20
2018-11-06T15:20:11.130Z,5.93
2018-11-06T15:22:39.501Z,6.22
2018-11-06T15:25:08.534Z,6.50
2018-11-06T15:27:36.770Z,7.50
2018-11-06T15:30:06.727Z,8.13
2018-11-06T15:32:34.968Z,8.77
2018-11-06T15:35:03.223Z,8.57
2018-11-06T15:37:31.448Z,7.67
2018-11-06T15:39:59.703Z,6.90
2018-11-06T15:42:27.902Z,7.53
2018-11-06T15:44:56.125Z,7.53
2018-11-06T15:50:16.270Z,6.67
2018-11-06T15:52:45.362Z,6.37
2018-11-06T15:55:13.627Z,6.60
2018-11-06T15:57:41.882Z,7.50
2018-11-06T16:00:19.007Z,7.53
2018-11-06T16:02:47.791Z,6.50
2018-11-06T16:05:16.110Z,7.17
2018-11-06T16:07:44.537Z,8.50
2018-11-06T16:10:15.000Z,10.08
2018-11-06T16:12:43.853Z,8.43
2018-11-06T16:15:12.197Z,8.20
2018-11-06T16:17:40.382Z,12.90
2018-11-06T16:20:10.634Z,8.93
2018-11-06T16:22:38.942Z,9.40
2018-11-06T16:25:08.842Z,6.95
2018-11-06T16:27:37.606Z,5.65
2018-11-06T16:30:07.915Z,5.87
2018-11-06T16:32:36.156Z,6.25
2018-11-06T16:35:05.031Z,6.83
2018-11-06T16:37:33.363Z,6.50
2018-11-06T16:40:01.595Z,6.40
2018-11-06T16:42:30.010Z,6.92
2018-11-06T16:44:58.479Z,6.90
2018-11-06T16:47:27.671Z,7.40
2018-11-06T16:49:56.976Z,7.05
2018-11-06T16:52:25.701Z,6.87
2018-11-06T16:54:57.095Z,7.12
2018-11-06T16:57:25.739Z,7.45
2018-11-06T16:59:54.864Z,6.83
2018-11-06T17:02:24.002Z,6.95
2018-11-06T17:04:52.828Z,6.90
2018-11-06T17:07:21.680Z,6.70
2018-11-06T17:09:50.483Z,6.70
2018-11-06T17:12:19.340Z,7.47
2018-11-06T17:14:49.664Z,6.95
2018-11-06T17:17:18.448Z,6.90
2018-11-06T17:19:47.513Z,6.92
2018-11-06T17:22:16.619Z,6.15
2018-11-06T17:24:45.229Z,6.87
2018-11-06T17:27:14.452Z,8.20
2018-11-06T17:29:43.407Z,6.70
2018-11-06T17:32:12.209Z,6.03
2018-11-06T17:34:40.948Z,7.30
2018-11-06T17:37:10.370Z,7.15
2018-11-06T17:39:39.636Z,7.42
2018-11-06T17:42:08.276Z,8.10
2018-11-06T17:44:36.956Z,7.03
2018-11-06T17:47:06.187Z,6.45
2018-11-06T17:49:34.946Z,7.92
2018-11-06T17:52:04.392Z,7.25
2018-11-06T17:54:33.543Z,6.70
2018-11-06T17:57:02.482Z,7.47
2018-11-06T17:59:31.421Z,7.53
2018-11-06T18:02:00.378Z,6.92
2018-11-06T18:04:29.305Z,6.77
2018-11-06T18:06:58.055Z,7.17
2018-11-06T18:09:27.032Z,7.80
2018-11-06T18:11:55.801Z,8.50
2018-11-06T18:14:24.350Z,8.23
2018-11-06T18:16:53.211Z,8.20
2018-11-06T18:19:21.951Z,8.10
2018-11-06T18:21:50.659Z,8.35
2018-11-06T18:24:19.143Z,7.92
2018-11-06T18:26:47.633Z,12.10
2018-11-06T18:29:16.402Z,15.73
2018-11-06T18:31:45.036Z,10.63
2018-11-06T18:34:13.519Z,9.20
2018-11-06T18:36:42.585Z,8.73
2018-11-06T18:39:13.291Z,11.25
2018-11-06T18:41:41.836Z,10.82
2018-11-06T18:44:11.575Z,9.23
2018-11-06T18:46:40.476Z,8.48
2018-11-06T18:49:09.784Z,8.33
2018-11-06T18:51:39.716Z,8.03
2018-11-06T18:54:12.484Z,7.90
2018-11-06T18:56:41.962Z,8.50
2018-11-06T18:59:10.773Z,7.10
2018-11-06T19:01:39.622Z,8.93
2018-11-06T19:04:09.315Z,7.92
2018-11-06T19:06:43.782Z,8.18
2018-11-06T19:09:13.383Z,8.80
2018-11-06T19:11:42.462Z,7.65
2018-11-06T19:14:12.005Z,7.47
2018-11-06T19:16:41.022Z,6.67
2018-11-06T19:19:10.348Z,6.70
2018-11-06T19:21:39.339Z,6.95
2018-11-06T19:24:08.366Z,6.65
2018-11-06T19:26:38.569Z,6.85
2018-11-06T19:29:08.201Z,7.62
2018-11-06T19:31:37.748Z,6.25
2018-11-06T19:34:06.490Z,6.83
2018-11-06T19:36:35.421Z,6.45
2018-11-06T19:39:06.761Z,6.67
2018-11-06T19:41:35.681Z,8.28
2018-11-06T19:44:04.632Z,15.40
2018-11-06T19:46:33.652Z,16.05
2018-11-06T19:49:03.454Z,8.73
2018-11-06T19:51:34.664Z,7.50
2018-11-06T19:54:03.570Z,6.97
2018-11-06T19:56:32.934Z,6.25
2018-11-06T19:59:03.297Z,7.33
2018-11-06T20:01:32.188Z,6.20
2018-11-06T20:04:00.996Z,7.50
2018-11-06T20:06:30.524Z,7.53
2018-11-06T20:08:59.488Z,7.30
2018-11-06T20:11:28.532Z,6.35
2018-11-06T20:13:58.689Z,7.45
2018-11-06T20:16:28.260Z,7.50
2018-11-06T20:18:57.242Z,7.10
2018-11-06T20:21:27.851Z,7.05
2018-11-06T20:23:57.352Z,7.37
2018-11-06T20:26:26.120Z,7.53
2018-11-06T20:28:55.204Z,7.85
2018-11-06T20:31:24.175Z,7.95
2018-11-06T20:33:53.177Z,7.08
2018-11-06T20:36:21.858Z,6.92
2018-11-06T20:38:51.307Z,6.67
2018-11-06T20:41:20.536Z,7.08
2018-11-06T20:43:49.410Z,6.40
2018-11-06T20:46:39.706Z,7.30
2018-11-06T20:49:08.851Z,7.20
2018-11-06T20:51:37.377Z,7.65
2018-11-06T20:54:07.043Z,7.20
2018-11-06T20:56:37.012Z,7.53
2018-11-06T20:59:06.640Z,7.35
2018-11-06T21:01:35.528Z,6.83
2018-11-06T21:04:04.213Z,6.80
2018-11-06T21:06:33.351Z,6.95
2018-11-06T21:09:02.921Z,6.90
2018-11-06T21:11:32.418Z,6.80
2018-11-06T21:14:01.954Z,6.40
2018-11-06T21:16:30.728Z,6.47
2018-11-06T21:19:00.195Z,5.90
2018-11-06T21:21:29.817Z,6.70
2018-11-06T21:23:58.648Z,7.42
2018-11-06T21:26:27.534Z,7.08
2018-11-06T21:28:56.369Z,6.65
2018-11-06T21:31:25.580Z,7.70
2018-11-06T21:33:54.689Z,6.55
2018-11-06T21:36:23.598Z,6.62
2018-11-06T21:38:52.586Z,6.70
2018-11-06T21:41:21.133Z,6.85
2018-11-06T21:43:49.979Z,6.83
2018-11-06T21:46:18.675Z,6.80
2018-11-06T21:48:47.493Z,6.72
2018-11-06T21:51:16.191Z,6.15
2018-11-06T21:53:44.782Z,6.53
2018-11-06T21:56:13.595Z,5.75
2018-11-06T21:58:43.802Z,6.87
2018-11-06T22:01:12.482Z,7.40
2018-11-06T22:03:41.729Z,7.60
2018-11-06T22:06:15.279Z,6.72
2018-11-06T22:08:43.950Z,7.33
2018-11-06T22:11:13.651Z,7.33
2018-11-06T22:13:42.567Z,7.20
2018-11-06T22:16:12.211Z,5.90
2018-11-06T22:18:40.773Z,7.95
2018-11-06T22:21:10.719Z,8.10
2018-11-06T22:23:41.086Z,7.45
2018-11-06T22:26:09.637Z,7.30
2018-11-06T22:28:38.384Z,7.33
2018-11-06T22:31:07.153Z,7.80
2018-11-06T22:33:35.846Z,7.20
2018-11-06T22:36:04.707Z,7.75
2018-11-06T22:38:35.348Z,7.20
2018-11-06T22:41:04.324Z,7.22
2018-11-06T22:43:33.274Z,8.00
2018-11-06T22:46:01.856Z,6.58
2018-11-06T22:48:31.078Z,6.90
2018-11-06T22:51:01.174Z,7.20
2018-11-06T22:53:30.033Z,6.85
2018-11-06T22:55:59.086Z,7.08
2018-11-06T22:58:27.782Z,7.53
2018-11-06T23:01:01.749Z,6.70
2018-11-06T23:03:30.589Z,6.70
2018-11-06T23:05:59.363Z,6.60
2018-11-06T23:08:28.819Z,6.25
2018-11-06T23:10:57.404Z,6.90
2018-11-06T23:13:25.929Z,6.37
2018-11-06T23:15:55.096Z,6.92
2018-11-06T23:18:23.920Z,7.10
2018-11-06T23:20:53.632Z,5.85
2018-11-06T23:23:22.823Z,5.78
2018-11-06T23:25:52.188Z,5.72
2018-11-06T23:28:21.455Z,5.62
2018-11-06T23:30:51.132Z,5.05
2018-11-06T23:33:19.817Z,5.30
2018-11-06T23:35:48.590Z,4.60
2018-11-06T23:38:17.408Z,5.05
2018-11-06T23:40:45.861Z,5.53
2018-11-06T23:43:14.434Z,5.03
2018-11-06T23:45:43.008Z,5.30
2018-11-06T23:48:11.529Z,5.50
2018-11-06T23:50:40.415Z,4.70
2018-11-06T23:53:10.506Z,5.00
2018-11-06T23:55:40.071Z,5.30
2018-11-06T23:58:09.359Z,5.20
